createdAt,value
2022-10-06T06:37:16.491Z,1028.19
2022-10-06T06:42:10.518Z,1028.43
2022-10-06T06:47:03.221Z,1028.42
2022-10-06T06:51:55.912Z,1028.58
2022-10-06T06:56:48.839Z,1028.65
2022-10-06T07:01:41.402Z,1028.78
2022-10-06T07:06:33.832Z,1028.9
2022-10-06T07:11:26.010Z,1029.08
2022-10-06T07:16:18.754Z,1029.23
2022-10-06T07:21:11.386Z,1029.34
2022-10-06T07:26:03.904Z,1029.45
2022-10-06T07:30:56.255Z,1029.43
2022-10-06T07:35:48.769Z,1029.42
2022-10-06T07:40:46.118Z,1029.42
2022-10-06T07:45:33.925Z,1029.51
2022-10-06T07:50:26.331Z,1029.6
2022-10-06T07:55:18.809Z,1029.87
2022-10-06T08:00:11.244Z,1029.84
2022-10-06T08:05:03.723Z,1029.98
2022-10-06T08:09:56.170Z,1030.01
2022-10-06T08:14:48.567Z,1030.05
2022-10-06T08:19:41.288Z,1030.17
2022-10-06T08:24:48.089Z,1030.32
2022-10-06T08:29:25.946Z,1030.36
2022-10-06T08:34:18.346Z,1030.45
2022-10-06T08:39:10.887Z,1030.55
2022-10-06T08:44:04.011Z,1030.5
2022-10-06T08:48:56.569Z,1030.5
2022-10-06T08:53:49.139Z,1030.43
2022-10-06T08:58:41.371Z,1030.43
2022-10-06T09:03:33.804Z,1030.59
2022-10-06T09:08:26.355Z,1030.68
2022-10-06T09:13:21.843Z,1030.7
2022-10-06T09:18:11.416Z,1030.69
2022-10-06T09:23:03.869Z,1030.72
2022-10-06T09:27:56.129Z,1030.81
2022-10-06T09:32:48.486Z,1030.84
2022-10-06T09:37:40.813Z,1030.76
2022-10-06T09:42:33.264Z,1030.84
2022-10-06T09:47:25.738Z,1030.85
2022-10-06T09:52:18.215Z,1030.89
2022-10-06T09:57:10.764Z,1031.01
2022-10-06T10:02:03.187Z,1031.07
2022-10-06T10:06:55.473Z,1031
2022-10-06T10:11:47.858Z,1031.06
2022-10-06T10:16:40.543Z,1031.05
2022-10-06T10:21:33.041Z,1031.04
2022-10-06T10:26:25.560Z,1031.23
2022-10-06T10:31:18.174Z,1031.17
2022-10-06T10:36:10.909Z,1031.1
2022-10-06T10:41:03.264Z,1031.15
2022-10-06T10:45:55.670Z,1031.27
2022-10-06T10:50:47.993Z,1031.26
2022-10-06T10:55:40.530Z,1031.28
2022-10-06T11:00:33.088Z,1031.25
2022-10-06T11:05:28.139Z,1031.34
2022-10-06T11:10:18.256Z,1031.29
2022-10-06T11:15:10.605Z,1031.32
2022-10-06T11:20:03.316Z,1031.26
2022-10-06T11:24:56.049Z,1031.25
2022-10-06T11:29:48.370Z,1031.27
2022-10-06T11:34:40.872Z,1031.27
2022-10-06T11:39:33.439Z,1031.18
2022-10-06T11:44:25.951Z,1031.11
2022-10-06T11:49:18.376Z,1031.01
2022-10-06T11:54:10.814Z,1031.06
2022-10-06T11:59:03.224Z,1031.06
2022-10-06T12:03:55.863Z,1031.03
2022-10-06T12:08:48.246Z,1031.02
2022-10-06T12:18:33.432Z,1031.02
2022-10-06T12:23:25.761Z,1031.12
2022-10-06T12:28:18.282Z,1031.05
2022-10-06T12:33:10.660Z,1031.04
2022-10-06T12:38:03.216Z,1031.03
2022-10-06T12:42:55.756Z,1030.93
2022-10-06T12:47:48.532Z,1030.84
2022-10-06T12:52:41.160Z,1030.84
2022-10-06T13:02:26.337Z,1030.88
2022-10-06T13:12:11.083Z,1030.8
2022-10-06T13:17:03.644Z,1030.65
2022-10-06T13:21:56.094Z,1030.64
2022-10-06T13:26:48.636Z,1030.62
2022-10-06T13:31:41.150Z,1030.57
2022-10-06T13:36:33.545Z,1030.53
2022-10-06T13:41:25.967Z,1030.51
2022-10-06T13:46:15.663Z,1030.64
2022-10-06T13:51:09.109Z,1030.71
2022-10-06T13:56:01.622Z,1030.81
2022-10-06T14:00:54.330Z,1030.82
2022-10-06T14:05:46.902Z,1030.77
2022-10-06T14:10:33.640Z,1030.81
2022-10-06T14:15:27.347Z,1030.77
2022-10-06T14:20:21.148Z,1030.79
2022-10-06T14:25:13.771Z,1030.76
2022-10-06T14:30:06.507Z,1030.74
2022-10-06T14:34:59.161Z,1030.75
2022-10-06T14:39:51.790Z,1030.77
2022-10-06T14:44:44.335Z,1030.76
2022-10-06T14:49:37.069Z,1030.66
2022-10-06T14:54:29.736Z,1030.7
2022-10-06T14:59:22.375Z,1030.71
2022-10-06T15:04:14.945Z,1030.74
2022-10-06T15:09:07.406Z,1030.74
2022-10-06T15:14:00.050Z,1030.72
2022-10-06T15:18:52.626Z,1030.72
2022-10-06T15:23:45.351Z,1030.74
2022-10-06T15:28:38.020Z,1030.76
2022-10-06T15:33:30.513Z,1030.81
2022-10-06T15:38:23.389Z,1030.79
2022-10-06T15:43:16.004Z,1030.83
2022-10-06T15:48:08.450Z,1030.84
2022-10-06T15:53:00.992Z,1030.89
2022-10-06T15:57:53.661Z,1030.83
2022-10-06T16:02:46.337Z,1030.86
2022-10-06T16:07:38.862Z,1030.86
2022-10-06T16:12:31.366Z,1030.85
2022-10-06T16:17:24.532Z,1030.84
2022-10-06T16:22:17.318Z,1030.85
2022-10-06T16:27:10.111Z,1030.87
2022-10-06T16:32:02.754Z,1030.86
2022-10-06T16:36:55.455Z,1030.86
2022-10-06T16:41:48.184Z,1031.02
2022-10-06T16:46:40.997Z,1031.06
2022-10-06T16:51:33.718Z,1031.04
2022-10-06T16:56:26.258Z,1031.1
2022-10-06T17:01:18.962Z,1031.14
2022-10-06T17:06:11.692Z,1031.15
2022-10-06T17:11:04.463Z,1031.13
2022-10-06T17:15:57.125Z,1031.29
2022-10-06T17:20:49.805Z,1031.38
2022-10-06T17:25:42.463Z,1031.34
2022-10-06T17:30:35.139Z,1031.36
2022-10-06T17:35:27.617Z,1031.46
2022-10-06T17:40:20.417Z,1031.48
2022-10-06T17:50:05.618Z,1031.51
2022-10-06T17:59:50.873Z,1031.55
2022-10-06T18:09:36.227Z,1031.6
2022-10-06T18:19:21.019Z,1031.67
2022-10-06T18:24:13.316Z,1031.58
2022-10-06T18:29:05.810Z,1031.63
2022-10-06T18:38:51.151Z,1031.65
2022-10-06T18:43:43.477Z,1031.67
2022-10-06T18:48:36.298Z,1031.71
2022-10-06T18:53:28.756Z,1031.72
2022-10-06T18:58:21.305Z,1031.78
2022-10-06T19:03:13.953Z,1031.83
2022-10-06T19:08:06.470Z,1031.85
2022-10-06T19:12:58.903Z,1031.87
2022-10-06T19:17:51.451Z,1031.92
2022-10-06T19:22:44.255Z,1032.01
2022-10-06T19:27:36.621Z,1032
2022-10-06T19:32:29.234Z,1032.11
2022-10-06T19:37:21.779Z,1032.07
2022-10-06T19:42:14.421Z,1032.1
2022-10-06T19:47:06.926Z,1032.05
2022-10-06T19:51:59.329Z,1032.17
2022-10-06T19:56:52.130Z,1032.24
2022-10-06T20:01:44.763Z,1032.2
2022-10-06T20:06:37.261Z,1032.28
2022-10-06T20:11:29.693Z,1032.32
2022-10-06T20:16:22.591Z,1032.37
2022-10-06T20:21:15.540Z,1032.34
2022-10-06T20:26:07.826Z,1032.34
2022-10-06T20:31:00.133Z,1032.32
2022-10-06T20:35:52.669Z,1032.26
2022-10-06T20:40:44.763Z,1032.3
2022-10-06T20:45:37.373Z,1032.27
2022-10-06T20:50:29.995Z,1032.19
2022-10-06T20:55:22.772Z,1032.19
2022-10-06T21:00:15.218Z,1032.17
2022-10-06T21:05:07.642Z,1032.2
2022-10-06T21:10:00.245Z,1032.18
2022-10-06T21:14:53.050Z,1032.13
2022-10-06T21:19:45.567Z,1032.17
2022-10-06T21:24:38.353Z,1032.17
2022-10-06T21:29:30.919Z,1032.08
2022-10-06T21:34:23.571Z,1032.04
2022-10-06T21:39:16.240Z,1032.01
2022-10-06T21:44:08.832Z,1032.09
2022-10-06T21:49:01.026Z,1032.01
2022-10-06T21:53:53.885Z,1032.03
2022-10-06T21:58:46.383Z,1032.01
2022-10-06T22:03:38.903Z,1031.97
2022-10-06T22:08:31.578Z,1031.94
2022-10-06T22:13:24.118Z,1031.93
2022-10-06T22:18:16.827Z,1031.87
2022-10-06T22:23:09.299Z,1031.88
2022-10-06T22:28:01.898Z,1031.94
2022-10-06T22:32:54.381Z,1031.93
2022-10-06T22:37:47.079Z,1031.92
2022-10-06T22:42:39.352Z,1031.9
2022-10-06T22:47:31.858Z,1031.88
2022-10-06T22:52:24.468Z,1031.88
2022-10-06T22:57:16.971Z,1031.86
2022-10-06T23:02:09.194Z,1031.87
2022-10-06T23:07:01.544Z,1031.76
2022-10-06T23:11:54.074Z,1031.75
2022-10-06T23:16:46.584Z,1031.72
2022-10-06T23:26:31.871Z,1031.7
2022-10-06T23:36:17.150Z,1031.6
2022-10-06T23:41:09.832Z,1031.57
2022-10-06T23:46:02.426Z,1031.59
2022-10-06T23:50:54.976Z,1031.63
2022-10-06T23:55:47.562Z,1031.48
